Impacts TAF Board
For situational awareness. Not to be used for flight planning purposes.
IDs:

KCLT - Charlotte/Douglas In, NC, US

Issued at 2331 UTC 19 Mar 2019
Updated at 0349 UTC 20 Mar 2019
Potential Impact None Slight Moderate High
Time0252Z 20/04Z 20/05Z 20/06Z 20/07Z 20/08Z 20/09Z 20/10Z 20/11Z 20/12Z 20/13Z 20/14Z 20/15Z 20/16Z>>
Type OBS PRVL PRVL PRVL PRVL PRVL PRVL PRVL PRVL PRVL PRVL PRVL PRVL PRVL
VIS 10 >6 >6 >6 >6 >6 >6 >6 >6 >6 >6 >6 >6 >6
CIG -- -- -- -- -- -- -- -- -- -- -- -- -- --
Cover CLR FEW FEW FEW FEW FEW FEW FEW FEW FEW FEW FEW FEW FEW
FltCat VFR VFR VFR VFR VFR VFR VFR VFR VFR VFR VFR VFR VFR VFR
WX -- -- -- -- -- -- -- -- -- -- -- -- -- --
WDir 40 50 50 50 50 50 50 50 50 50 50 50 50 50
WSpd 4 4 4 4 4 4 4 4 4 4 4 4 4 4
WGst -- -- -- -- -- -- -- -- -- -- -- -- -- --
Raw TAF
KCLT 192331Z 2000/2106 05004KT P6SM FEW250
  FM201800 05007KT P6SM BKN045
  FM210200 03006KT P6SM BKN027
  FM210300 03005KT P6SM BKN018


Raw METAR
KCLT 200252Z 04004KT 10SM CLR 07/M06 A3033 RMK AO2 SLP272 T00721061 50005
KCLT 200152Z 06004KT 10SM FEW250 07/M06 A3033 RMK AO2 SLP273 T00721061
KCLT 200052Z 04004KT 10SM FEW250 08/M06 A3033 RMK AO2 SLP270 T00781061

METAR Board
Radar Display
Forecast Discussion
For situational awareness. Not to be used for flight planning purposes.